sensor_id;sensor_type;location;lat;lon;timestamp;temperature;humidity
42147;DHT22;27815;43.410;11.852;2024-01-30T00:02:48;3.50;52.10
42147;DHT22;27815;43.410;11.852;2024-01-30T00:07:33;3.40;52.20
42147;DHT22;27815;43.410;11.852;2024-01-30T00:12:21;3.30;52.60
42147;DHT22;27815;43.410;11.852;2024-01-30T00:16:31;3.10;52.50
42147;DHT22;27815;43.410;11.852;2024-01-30T00:21:21;3.00;52.60
42147;DHT22;27815;43.410;11.852;2024-01-30T00:25:56;3.00;52.90
42147;DHT22;27815;43.410;11.852;2024-01-30T00:31:15;3.00;52.70
42147;DHT22;27815;43.410;11.852;2024-01-30T00:36:45;2.90;53.10
42147;DHT22;27815;43.410;11.852;2024-01-30T00:41:12;2.80;53.10
42147;DHT22;27815;43.410;11.852;2024-01-30T00:45:37;2.80;53.30
42147;DHT22;27815;43.410;11.852;2024-01-30T00:49:52;2.70;53.20
42147;DHT22;27815;43.410;11.852;2024-01-30T00:54:36;2.50;53.80
42147;DHT22;27815;43.410;11.852;2024-01-30T00:59:16;2.40;54.30
42147;DHT22;27815;43.410;11.852;2024-01-30T01:04:13;2.40;54.40
42147;DHT22;27815;43.410;11.852;2024-01-30T01:08:53;2.40;54.20
42147;DHT22;27815;43.410;11.852;2024-01-30T01:13:25;2.50;54.30
42147;DHT22;27815;43.410;11.852;2024-01-30T01:17:32;2.50;54.20
42147;DHT22;27815;43.410;11.852;2024-01-30T01:21:37;2.50;54.20
42147;DHT22;27815;43.410;11.852;2024-01-30T01:25:54;2.50;54.30
42147;DHT22;27815;43.410;11.852;2024-01-30T01:30:03;2.40;54.40
42147;DHT22;27815;43.410;11.852;2024-01-30T01:34:18;2.50;54.50
42147;DHT22;27815;43.410;11.852;2024-01-30T01:39:01;2.30;54.70
42147;DHT22;27815;43.410;11.852;2024-01-30T01:43:53;2.30;55.00
42147;DHT22;27815;43.410;11.852;2024-01-30T01:48:09;2.20;55.00
42147;DHT22;27815;43.410;11.852;2024-01-30T01:52:20;2.20;55.00
42147;DHT22;27815;43.410;11.852;2024-01-30T01:56:43;2.30;54.90
42147;DHT22;27815;43.410;11.852;2024-01-30T02:01:28;2.20;54.90
42147;DHT22;27815;43.410;11.852;2024-01-30T02:05:46;2.10;55.20
42147;DHT22;27815;43.410;11.852;2024-01-30T02:10:54;2.00;55.10
42147;DHT22;27815;43.410;11.852;2024-01-30T02:15:34;1.90;55.20
42147;DHT22;27815;43.410;11.852;2024-01-30T02:20:40;1.90;55.50
42147;DHT22;27815;43.410;11.852;2024-01-30T02:25:09;1.80;55.50
42147;DHT22;27815;43.410;11.852;2024-01-30T02:30:27;1.70;55.70
42147;DHT22;27815;43.410;11.852;2024-01-30T02:35:49;1.60;56.00
42147;DHT22;27815;43.410;11.852;2024-01-30T02:41:13;1.60;56.00
42147;DHT22;27815;43.410;11.852;2024-01-30T02:45:40;1.40;56.20
42147;DHT22;27815;43.410;11.852;2024-01-30T02:49:48;1.40;56.20
42147;DHT22;27815;43.410;11.852;2024-01-30T02:54:03;1.40;56.10
42147;DHT22;27815;43.410;11.852;2024-01-30T02:58:15;1.30;56.10
42147;DHT22;27815;43.410;11.852;2024-01-30T03:02:25;1.30;56.10
42147;DHT22;27815;43.410;11.852;2024-01-30T03:06:38;1.20;56.00
42147;DHT22;27815;43.410;11.852;2024-01-30T03:10:44;1.30;56.00
42147;DHT22;27815;43.410;11.852;2024-01-30T03:14:49;1.20;56.00
42147;DHT22;27815;43.410;11.852;2024-01-30T03:18:59;1.20;56.30
42147;DHT22;27815;43.410;11.852;2024-01-30T03:23:19;1.20;56.40
42147;DHT22;27815;43.410;11.852;2024-01-30T03:27:31;1.20;56.50
42147;DHT22;27815;43.410;11.852;2024-01-30T03:31:43;1.20;56.50
42147;DHT22;27815;43.410;11.852;2024-01-30T03:36:09;1.10;56.50
42147;DHT22;27815;43.410;11.852;2024-01-30T03:40:39;1.10;56.60
42147;DHT22;27815;43.410;11.852;2024-01-30T03:45:28;1.10;56.90
42147;DHT22;27815;43.410;11.852;2024-01-30T03:50:02;1.10;57.00
42147;DHT22;27815;43.410;11.852;2024-01-30T03:55:00;1.10;56.70
42147;DHT22;27815;43.410;11.852;2024-01-30T03:59:53;1.00;56.80
42147;DHT22;27815;43.410;11.852;2024-01-30T04:05:18;1.00;56.90
42147;DHT22;27815;43.410;11.852;2024-01-30T04:10:56;0.90;57.30
42147;DHT22;27815;43.410;11.852;2024-01-30T04:16:26;0.80;57.50
42147;DHT22;27815;43.410;11.852;2024-01-30T04:21:29;0.70;57.50
42147;DHT22;27815;43.410;11.852;2024-01-30T04:26:05;0.70;57.50
42147;DHT22;27815;43.410;11.852;2024-01-30T04:31:07;0.70;57.40
42147;DHT22;27815;43.410;11.852;2024-01-30T04:36:57;0.70;57.50
42147;DHT22;27815;43.410;11.852;2024-01-30T04:42:01;0.60;57.70
42147;DHT22;27815;43.410;11.852;2024-01-30T04:46:12;0.60;57.50
42147;DHT22;27815;43.410;11.852;2024-01-30T04:50:17;0.50;57.60
42147;DHT22;27815;43.410;11.852;2024-01-30T04:54:24;0.50;57.60
42147;DHT22;27815;43.410;11.852;2024-01-30T04:58:30;0.50;57.60
42147;DHT22;27815;43.410;11.852;2024-01-30T05:02:39;0.40;57.70
42147;DHT22;27815;43.410;11.852;2024-01-30T05:07:00;0.40;57.70
42147;DHT22;27815;43.410;11.852;2024-01-30T05:11:05;0.30;57.70
42147;DHT22;27815;43.410;11.852;2024-01-30T05:15:21;0.20;57.70
42147;DHT22;27815;43.410;11.852;2024-01-30T05:19:49;0.20;57.80
42147;DHT22;27815;43.410;11.852;2024-01-30T05:23:57;0.20;57.80
42147;DHT22;27815;43.410;11.852;2024-01-30T05:28:09;0.30;57.90
42147;DHT22;27815;43.410;11.852;2024-01-30T05:32:58;0.30;58.00
42147;DHT22;27815;43.410;11.852;2024-01-30T05:37:23;0.30;58.20
42147;DHT22;27815;43.410;11.852;2024-01-30T05:41:29;0.30;58.20
42147;DHT22;27815;43.410;11.852;2024-01-30T05:45:33;0.20;58.20
42147;DHT22;27815;43.410;11.852;2024-01-30T05:49:41;0.20;58.40
42147;DHT22;27815;43.410;11.852;2024-01-30T05:54:16;0.20;58.40
42147;DHT22;27815;43.410;11.852;2024-01-30T05:58:21;0.20;58.60
42147;DHT22;27815;43.410;11.852;2024-01-30T06:02:36;0.10;58.80
42147;DHT22;27815;43.410;11.852;2024-01-30T06:06:58;0.10;58.80
42147;DHT22;27815;43.410;11.852;2024-01-30T06:11:17;0.10;58.80
42147;DHT22;27815;43.410;11.852;2024-01-30T06:15:20;0.10;58.70
42147;DHT22;27815;43.410;11.852;2024-01-30T06:20:26;0.00;58.80
42147;DHT22;27815;43.410;11.852;2024-01-30T06:24:40;0.00;58.90
42147;DHT22;27815;43.410;11.852;2024-01-30T06:28:43;0.00;58.90
42147;DHT22;27815;43.410;11.852;2024-01-30T06:32:47;0.00;58.90
42147;DHT22;27815;43.410;11.852;2024-01-30T06:36:53;0.00;59.00
42147;DHT22;27815;43.410;11.852;2024-01-30T06:40:56;0.00;59.00
42147;DHT22;27815;43.410;11.852;2024-01-30T06:44:59;0.00;59.10
42147;DHT22;27815;43.410;11.852;2024-01-30T06:49:02;0.00;59.00
42147;DHT22;27815;43.410;11.852;2024-01-30T06:53:05;0.00;59.10
42147;DHT22;27815;43.410;11.852;2024-01-30T06:57:09;0.00;59.20
42147;DHT22;27815;43.410;11.852;2024-01-30T07:01:15;0.00;59.30
42147;DHT22;27815;43.410;11.852;2024-01-30T07:05:19;0.00;59.30
42147;DHT22;27815;43.410;11.852;2024-01-30T07:09:22;0.00;59.40
42147;DHT22;27815;43.410;11.852;2024-01-30T07:13:27;0.00;59.40
42147;DHT22;27815;43.410;11.852;2024-01-30T07:17:34;0.00;59.50
42147;DHT22;27815;43.410;11.852;2024-01-30T07:21:38;0.10;59.50
42147;DHT22;27815;43.410;11.852;2024-01-30T07:25:44;0.10;59.40
42147;DHT22;27815;43.410;11.852;2024-01-30T07:29:50;0.10;59.40
42147;DHT22;27815;43.410;11.852;2024-01-30T07:33:54;0.20;59.30
42147;DHT22;27815;43.410;11.852;2024-01-30T07:37:58;0.10;59.40
42147;DHT22;27815;43.410;11.852;2024-01-30T07:42:01;0.10;59.60
42147;DHT22;27815;43.410;11.852;2024-01-30T07:46:08;0.20;59.50
42147;DHT22;27815;43.410;11.852;2024-01-30T07:50:11;0.40;59.50
42147;DHT22;27815;43.410;11.852;2024-01-30T07:54:15;0.60;59.50
42147;DHT22;27815;43.410;11.852;2024-01-30T07:58:20;0.80;59.40
42147;DHT22;27815;43.410;11.852;2024-01-30T08:02:23;1.10;59.40
42147;DHT22;27815;43.410;11.852;2024-01-30T08:06:26;1.30;59.40
42147;DHT22;27815;43.410;11.852;2024-01-30T08:10:29;1.60;59.30
42147;DHT22;27815;43.410;11.852;2024-01-30T08:14:35;1.70;59.40
42147;DHT22;27815;43.410;11.852;2024-01-30T08:18:40;1.80;59.50
42147;DHT22;27815;43.410;11.852;2024-01-30T08:22:55;2.00;59.60
42147;DHT22;27815;43.410;11.852;2024-01-30T08:26:57;2.10;59.50
42147;DHT22;27815;43.410;11.852;2024-01-30T08:31:01;2.40;59.50
42147;DHT22;27815;43.410;11.852;2024-01-30T08:35:05;2.60;59.30
42147;DHT22;27815;43.410;11.852;2024-01-30T08:39:14;2.70;59.30
42147;DHT22;27815;43.410;11.852;2024-01-30T08:43:17;2.90;59.30
42147;DHT22;27815;43.410;11.852;2024-01-30T08:47:21;3.30;59.10
42147;DHT22;27815;43.410;11.852;2024-01-30T08:51:25;3.80;58.80
42147;DHT22;27815;43.410;11.852;2024-01-30T08:55:29;4.20;58.50
42147;DHT22;27815;43.410;11.852;2024-01-30T08:59:38;4.70;58.10
42147;DHT22;27815;43.410;11.852;2024-01-30T09:04:14;5.10;57.70
42147;DHT22;27815;43.410;11.852;2024-01-30T09:08:20;5.40;57.50
42147;DHT22;27815;43.410;11.852;2024-01-30T09:12:27;5.70;57.30
42147;DHT22;27815;43.410;11.852;2024-01-30T09:16:46;5.90;57.20
42147;DHT22;27815;43.410;11.852;2024-01-30T09:20:54;6.20;57.10
42147;DHT22;27815;43.410;11.852;2024-01-30T09:25:00;6.40;57.10
42147;DHT22;27815;43.410;11.852;2024-01-30T09:29:34;6.50;57.00
42147;DHT22;27815;43.410;11.852;2024-01-30T09:33:41;6.70;57.10
42147;DHT22;27815;43.410;11.852;2024-01-30T09:37:55;6.80;56.80
42147;DHT22;27815;43.410;11.852;2024-01-30T09:42:33;6.70;57.10
42147;DHT22;27815;43.410;11.852;2024-01-30T09:47:07;6.80;57.30
42147;DHT22;27815;43.410;11.852;2024-01-30T09:52:19;7.00;57.20
42147;DHT22;27815;43.410;11.852;2024-01-30T09:56:25;7.10;56.80
42147;DHT22;27815;43.410;11.852;2024-01-30T10:00:28;7.40;56.80
42147;DHT22;27815;43.410;11.852;2024-01-30T10:04:35;7.80;56.50
42147;DHT22;27815;43.410;11.852;2024-01-30T10:08:53;8.20;56.00
42147;DHT22;27815;43.410;11.852;2024-01-30T10:12:59;8.60;55.50
42147;DHT22;27815;43.410;11.852;2024-01-30T10:17:11;9.10;54.90
42147;DHT22;27815;43.410;11.852;2024-01-30T10:21:35;9.30;53.40
42147;DHT22;27815;43.410;11.852;2024-01-30T10:25:43;9.50;52.50
42147;DHT22;27815;43.410;11.852;2024-01-30T10:29:48;9.70;51.80
42147;DHT22;27815;43.410;11.852;2024-01-30T10:33:52;9.90;51.20
42147;DHT22;27815;43.410;11.852;2024-01-30T10:38:19;10.10;50.40
42147;DHT22;27815;43.410;11.852;2024-01-30T10:42:26;10.40;49.90
42147;DHT22;27815;43.410;11.852;2024-01-30T10:46:31;10.50;49.60
42147;DHT22;27815;43.410;11.852;2024-01-30T10:50:36;10.60;48.90
42147;DHT22;27815;43.410;11.852;2024-01-30T10:55:10;10.60;48.50
42147;DHT22;27815;43.410;11.852;2024-01-30T10:59:17;10.80;48.30
42147;DHT22;27815;43.410;11.852;2024-01-30T11:03:20;11.00;47.70
42147;DHT22;27815;43.410;11.852;2024-01-30T11:07:28;11.20;47.20
42147;DHT22;27815;43.410;11.852;2024-01-30T11:11:31;11.30;46.80
42147;DHT22;27815;43.410;11.852;2024-01-30T11:15:37;11.50;46.30
42147;DHT22;27815;43.410;11.852;2024-01-30T11:19:43;11.60;45.80
42147;DHT22;27815;43.410;11.852;2024-01-30T11:23:46;11.80;45.50
42147;DHT22;27815;43.410;11.852;2024-01-30T11:27:50;12.00;45.40
42147;DHT22;27815;43.410;11.852;2024-01-30T11:31:54;12.20;45.10
42147;DHT22;27815;43.410;11.852;2024-01-30T11:35:58;12.40;44.60
42147;DHT22;27815;43.410;11.852;2024-01-30T11:40:02;12.50;44.50
42147;DHT22;27815;43.410;11.852;2024-01-30T11:44:07;12.60;44.20
42147;DHT22;27815;43.410;11.852;2024-01-30T11:48:12;12.70;44.30
42147;DHT22;27815;43.410;11.852;2024-01-30T11:52:16;12.90;44.10
42147;DHT22;27815;43.410;11.852;2024-01-30T11:56:20;13.00;44.10
42147;DHT22;27815;43.410;11.852;2024-01-30T12:00:23;13.10;43.80
42147;DHT22;27815;43.410;11.852;2024-01-30T12:04:29;13.20;43.70
42147;DHT22;27815;43.410;11.852;2024-01-30T12:08:33;13.30;43.20
42147;DHT22;27815;43.410;11.852;2024-01-30T12:12:36;13.50;43.40
42147;DHT22;27815;43.410;11.852;2024-01-30T12:16:39;13.50;43.00
42147;DHT22;27815;43.410;11.852;2024-01-30T12:20:57;13.60;42.70
42147;DHT22;27815;43.410;11.852;2024-01-30T12:25:02;13.80;42.10
42147;DHT22;27815;43.410;11.852;2024-01-30T12:29:05;13.80;41.50
42147;DHT22;27815;43.410;11.852;2024-01-30T12:33:08;13.90;41.30
42147;DHT22;27815;43.410;11.852;2024-01-30T12:37:13;14.00;40.70
42147;DHT22;27815;43.410;11.852;2024-01-30T12:41:17;13.90;40.40
42147;DHT22;27815;43.410;11.852;2024-01-30T12:45:23;14.00;40.60
42147;DHT22;27815;43.410;11.852;2024-01-30T12:49:35;14.10;40.60
42147;DHT22;27815;43.410;11.852;2024-01-30T12:53:38;14.00;40.30
42147;DHT22;27815;43.410;11.852;2024-01-30T12:57:41;14.10;39.40
42147;DHT22;27815;43.410;11.852;2024-01-30T13:01:46;14.10;39.00
42147;DHT22;27815;43.410;11.852;2024-01-30T13:05:49;14.20;38.90
42147;DHT22;27815;43.410;11.852;2024-01-30T13:09:52;14.30;39.00
42147;DHT22;27815;43.410;11.852;2024-01-30T13:13:55;14.40;38.20
42147;DHT22;27815;43.410;11.852;2024-01-30T13:17:58;14.30;37.80
42147;DHT22;27815;43.410;11.852;2024-01-30T13:22:02;14.30;37.00
42147;DHT22;27815;43.410;11.852;2024-01-30T13:26:05;14.40;37.60
42147;DHT22;27815;43.410;11.852;2024-01-30T13:30:10;14.40;37.40
42147;DHT22;27815;43.410;11.852;2024-01-30T13:34:14;14.30;36.90
42147;DHT22;27815;43.410;11.852;2024-01-30T13:38:18;14.20;35.90
42147;DHT22;27815;43.410;11.852;2024-01-30T13:42:21;14.30;35.60
42147;DHT22;27815;43.410;11.852;2024-01-30T13:46:24;14.20;36.00
42147;DHT22;27815;43.410;11.852;2024-01-30T13:50:27;14.20;36.00
42147;DHT22;27815;43.410;11.852;2024-01-30T13:54:30;14.20;35.70
42147;DHT22;27815;43.410;11.852;2024-01-30T13:58:33;14.20;34.70
42147;DHT22;27815;43.410;11.852;2024-01-30T14:02:39;14.20;35.00
42147;DHT22;27815;43.410;11.852;2024-01-30T14:06:55;14.20;34.80
42147;DHT22;27815;43.410;11.852;2024-01-30T14:11:06;14.20;35.10
42147;DHT22;27815;43.410;11.852;2024-01-30T14:15:10;14.30;34.40
42147;DHT22;27815;43.410;11.852;2024-01-30T14:19:29;14.30;34.90
42147;DHT22;27815;43.410;11.852;2024-01-30T14:23:32;14.30;34.70
42147;DHT22;27815;43.410;11.852;2024-01-30T14:27:36;14.50;34.90
42147;DHT22;27815;43.410;11.852;2024-01-30T14:31:40;14.50;34.60
42147;DHT22;27815;43.410;11.852;2024-01-30T14:35:46;14.50;34.40
42147;DHT22;27815;43.410;11.852;2024-01-30T14:39:52;14.50;33.80
42147;DHT22;27815;43.410;11.852;2024-01-30T14:43:55;14.50;33.30
42147;DHT22;27815;43.410;11.852;2024-01-30T14:47:59;14.50;33.50
42147;DHT22;27815;43.410;11.852;2024-01-30T14:52:03;14.50;33.30
42147;DHT22;27815;43.410;11.852;2024-01-30T14:56:07;14.40;33.30
42147;DHT22;27815;43.410;11.852;2024-01-30T15:00:11;14.40;33.30
42147;DHT22;27815;43.410;11.852;2024-01-30T15:04:14;14.40;33.50
42147;DHT22;27815;43.410;11.852;2024-01-30T15:08:17;14.40;33.80
42147;DHT22;27815;43.410;11.852;2024-01-30T15:12:21;14.40;33.80
42147;DHT22;27815;43.410;11.852;2024-01-30T15:16:42;14.40;34.20
42147;DHT22;27815;43.410;11.852;2024-01-30T15:20:53;14.30;34.40
42147;DHT22;27815;43.410;11.852;2024-01-30T15:24:56;14.30;34.50
42147;DHT22;27815;43.410;11.852;2024-01-30T15:29:12;14.20;34.80
42147;DHT22;27815;43.410;11.852;2024-01-30T15:33:15;14.10;35.20
42147;DHT22;27815;43.410;11.852;2024-01-30T15:37:18;14.00;35.30
42147;DHT22;27815;43.410;11.852;2024-01-30T15:41:31;13.90;35.60
42147;DHT22;27815;43.410;11.852;2024-01-30T15:45:37;13.70;35.90
42147;DHT22;27815;43.410;11.852;2024-01-30T15:49:41;13.60;36.20
42147;DHT22;27815;43.410;11.852;2024-01-30T15:53:44;13.50;36.20
42147;DHT22;27815;43.410;11.852;2024-01-30T15:57:48;13.40;36.40
42147;DHT22;27815;43.410;11.852;2024-01-30T16:01:51;13.30;36.60
42147;DHT22;27815;43.410;11.852;2024-01-30T16:05:54;13.30;36.80
42147;DHT22;27815;43.410;11.852;2024-01-30T16:09:57;13.10;37.10
42147;DHT22;27815;43.410;11.852;2024-01-30T16:14:00;12.80;37.50
42147;DHT22;27815;43.410;11.852;2024-01-30T16:18:03;12.50;38.20
42147;DHT22;27815;43.410;11.852;2024-01-30T16:22:06;12.10;38.90
42147;DHT22;27815;43.410;11.852;2024-01-30T16:26:10;11.80;39.20
42147;DHT22;27815;43.410;11.852;2024-01-30T16:30:14;11.50;39.60
42147;DHT22;27815;43.410;11.852;2024-01-30T16:34:22;11.10;39.60
42147;DHT22;27815;43.410;11.852;2024-01-30T16:38:25;10.90;39.50
42147;DHT22;27815;43.410;11.852;2024-01-30T16:42:30;10.70;39.40
42147;DHT22;27815;43.410;11.852;2024-01-30T16:46:35;10.40;39.20
42147;DHT22;27815;43.410;11.852;2024-01-30T16:50:41;10.20;38.90
42147;DHT22;27815;43.410;11.852;2024-01-30T16:54:44;10.10;38.80
42147;DHT22;27815;43.410;11.852;2024-01-30T16:58:53;10.00;38.80
42147;DHT22;27815;43.410;11.852;2024-01-30T17:02:58;9.80;39.20
42147;DHT22;27815;43.410;11.852;2024-01-30T17:07:06;9.70;39.40
42147;DHT22;27815;43.410;11.852;2024-01-30T17:11:11;9.60;39.70
42147;DHT22;27815;43.410;11.852;2024-01-30T17:15:16;9.30;39.90
42147;DHT22;27815;43.410;11.852;2024-01-30T17:19:22;9.20;40.10
42147;DHT22;27815;43.410;11.852;2024-01-30T17:23:30;9.10;40.40
42147;DHT22;27815;43.410;11.852;2024-01-30T17:27:45;8.90;40.50
42147;DHT22;27815;43.410;11.852;2024-01-30T17:31:49;8.70;40.60
42147;DHT22;27815;43.410;11.852;2024-01-30T17:35:58;8.50;40.80
42147;DHT22;27815;43.410;11.852;2024-01-30T17:40:02;8.40;40.80
42147;DHT22;27815;43.410;11.852;2024-01-30T17:44:06;8.20;40.90
42147;DHT22;27815;43.410;11.852;2024-01-30T17:48:13;8.10;40.70
42147;DHT22;27815;43.410;11.852;2024-01-30T17:52:16;8.00;40.90
42147;DHT22;27815;43.410;11.852;2024-01-30T17:56:19;7.80;40.90
42147;DHT22;27815;43.410;11.852;2024-01-30T18:00:22;7.80;40.90
42147;DHT22;27815;43.410;11.852;2024-01-30T18:04:28;7.70;40.70
42147;DHT22;27815;43.410;11.852;2024-01-30T18:08:34;7.70;40.60
42147;DHT22;27815;43.410;11.852;2024-01-30T18:12:40;7.70;40.70
42147;DHT22;27815;43.410;11.852;2024-01-30T18:16:51;7.80;40.70
42147;DHT22;27815;43.410;11.852;2024-01-30T18:21:01;7.90;40.70
42147;DHT22;27815;43.410;11.852;2024-01-30T18:25:09;8.00;40.80
42147;DHT22;27815;43.410;11.852;2024-01-30T18:29:15;8.00;40.80
42147;DHT22;27815;43.410;11.852;2024-01-30T18:33:20;8.00;40.90
42147;DHT22;27815;43.410;11.852;2024-01-30T18:37:26;7.90;41.10
42147;DHT22;27815;43.410;11.852;2024-01-30T18:41:31;7.70;41.30
42147;DHT22;27815;43.410;11.852;2024-01-30T18:45:38;7.60;41.60
42147;DHT22;27815;43.410;11.852;2024-01-30T18:49:43;7.40;41.70
42147;DHT22;27815;43.410;11.852;2024-01-30T18:53:53;7.10;42.20
42147;DHT22;27815;43.410;11.852;2024-01-30T18:57:58;7.10;42.40
42147;DHT22;27815;43.410;11.852;2024-01-30T19:02:05;7.00;42.60
42147;DHT22;27815;43.410;11.852;2024-01-30T19:06:10;7.00;42.70
42147;DHT22;27815;43.410;11.852;2024-01-30T19:10:15;6.90;43.00
42147;DHT22;27815;43.410;11.852;2024-01-30T19:14:34;6.80;43.30
42147;DHT22;27815;43.410;11.852;2024-01-30T19:18:40;6.60;43.60
42147;DHT22;27815;43.410;11.852;2024-01-30T19:22:43;6.50;43.90
42147;DHT22;27815;43.410;11.852;2024-01-30T19:26:48;6.50;44.10
42147;DHT22;27815;43.410;11.852;2024-01-30T19:30:54;6.50;44.30
42147;DHT22;27815;43.410;11.852;2024-01-30T19:34:58;6.50;44.50
42147;DHT22;27815;43.410;11.852;2024-01-30T19:39:03;6.50;44.60
42147;DHT22;27815;43.410;11.852;2024-01-30T19:43:07;6.50;44.60
42147;DHT22;27815;43.410;11.852;2024-01-30T19:47:10;6.50;44.70
42147;DHT22;27815;43.410;11.852;2024-01-30T19:51:17;6.40;44.90
42147;DHT22;27815;43.410;11.852;2024-01-30T19:55:22;6.40;44.90
42147;DHT22;27815;43.410;11.852;2024-01-30T19:59:31;6.30;45.00
42147;DHT22;27815;43.410;11.852;2024-01-30T20:03:35;6.20;45.20
42147;DHT22;27815;43.410;11.852;2024-01-30T20:07:40;6.10;45.20
42147;DHT22;27815;43.410;11.852;2024-01-30T20:11:43;6.00;45.40
42147;DHT22;27815;43.410;11.852;2024-01-30T20:15:47;6.00;45.60
42147;DHT22;27815;43.410;11.852;2024-01-30T20:19:51;5.90;45.80
42147;DHT22;27815;43.410;11.852;2024-01-30T20:23:59;5.80;46.00
42147;DHT22;27815;43.410;11.852;2024-01-30T20:28:02;5.70;46.40
42147;DHT22;27815;43.410;11.852;2024-01-30T20:32:05;5.70;46.60
42147;DHT22;27815;43.410;11.852;2024-01-30T20:36:08;5.60;47.10
42147;DHT22;27815;43.410;11.852;2024-01-30T20:40:12;5.60;47.80
42147;DHT22;27815;43.410;11.852;2024-01-30T20:44:17;5.60;47.80
42147;DHT22;27815;43.410;11.852;2024-01-30T20:48:23;5.50;47.70
42147;DHT22;27815;43.410;11.852;2024-01-30T20:52:30;5.50;47.60
42147;DHT22;27815;43.410;11.852;2024-01-30T20:56:33;5.40;47.70
42147;DHT22;27815;43.410;11.852;2024-01-30T21:00:36;5.30;47.80
42147;DHT22;27815;43.410;11.852;2024-01-30T21:04:39;5.10;48.00
42147;DHT22;27815;43.410;11.852;2024-01-30T21:08:44;5.00;48.50
42147;DHT22;27815;43.410;11.852;2024-01-30T21:12:47;4.90;48.80
42147;DHT22;27815;43.410;11.852;2024-01-30T21:16:50;5.00;49.00
42147;DHT22;27815;43.410;11.852;2024-01-30T21:20:54;4.90;49.70
42147;DHT22;27815;43.410;11.852;2024-01-30T21:24:57;5.00;50.40
42147;DHT22;27815;43.410;11.852;2024-01-30T21:29:01;5.00;50.70
42147;DHT22;27815;43.410;11.852;2024-01-30T21:33:06;5.00;50.40
42147;DHT22;27815;43.410;11.852;2024-01-30T21:37:09;5.00;50.30
42147;DHT22;27815;43.410;11.852;2024-01-30T21:41:14;4.80;50.20
42147;DHT22;27815;43.410;11.852;2024-01-30T21:45:20;4.70;50.80
42147;DHT22;27815;43.410;11.852;2024-01-30T21:49:26;4.60;51.10
42147;DHT22;27815;43.410;11.852;2024-01-30T21:53:30;4.50;51.00
42147;DHT22;27815;43.410;11.852;2024-01-30T21:57:33;4.60;51.10
42147;DHT22;27815;43.410;11.852;2024-01-30T22:01:36;4.50;51.50
42147;DHT22;27815;43.410;11.852;2024-01-30T22:05:41;4.50;51.70
42147;DHT22;27815;43.410;11.852;2024-01-30T22:09:44;4.50;53.30
42147;DHT22;27815;43.410;11.852;2024-01-30T22:13:47;4.40;53.70
42147;DHT22;27815;43.410;11.852;2024-01-30T22:17:50;4.50;53.80
42147;DHT22;27815;43.410;11.852;2024-01-30T22:21:53;4.50;53.30
42147;DHT22;27815;43.410;11.852;2024-01-30T22:25:58;4.50;52.90
42147;DHT22;27815;43.410;11.852;2024-01-30T22:30:01;4.50;52.80
42147;DHT22;27815;43.410;11.852;2024-01-30T22:34:04;4.50;52.80
42147;DHT22;27815;43.410;11.852;2024-01-30T22:38:07;4.40;53.00
42147;DHT22;27815;43.410;11.852;2024-01-30T22:42:11;4.30;53.10
42147;DHT22;27815;43.410;11.852;2024-01-30T22:46:14;4.20;53.10
42147;DHT22;27815;43.410;11.852;2024-01-30T22:50:20;4.20;53.00
42147;DHT22;27815;43.410;11.852;2024-01-30T22:54:23;4.20;53.00
42147;DHT22;27815;43.410;11.852;2024-01-30T22:58:26;4.20;52.90
42147;DHT22;27815;43.410;11.852;2024-01-30T23:02:29;4.20;52.90
42147;DHT22;27815;43.410;11.852;2024-01-30T23:06:33;4.10;53.00
42147;DHT22;27815;43.410;11.852;2024-01-30T23:10:36;4.00;53.30
42147;DHT22;27815;43.410;11.852;2024-01-30T23:14:39;3.90;53.50
42147;DHT22;27815;43.410;11.852;2024-01-30T23:18:43;3.90;53.60
42147;DHT22;27815;43.410;11.852;2024-01-30T23:22:46;3.80;53.80
42147;DHT22;27815;43.410;11.852;2024-01-30T23:26:49;3.80;53.80
42147;DHT22;27815;43.410;11.852;2024-01-30T23:30:52;3.80;54.00
42147;DHT22;27815;43.410;11.852;2024-01-30T23:35:00;3.80;54.30
42147;DHT22;27815;43.410;11.852;2024-01-30T23:39:03;3.70;54.30
42147;DHT22;27815;43.410;11.852;2024-01-30T23:43:06;3.60;54.70
42147;DHT22;27815;43.410;11.852;2024-01-30T23:47:10;3.60;54.60
42147;DHT22;27815;43.410;11.852;2024-01-30T23:51:13;3.60;54.60
42147;DHT22;27815;43.410;11.852;2024-01-30T23:55:16;3.60;55.00
42147;DHT22;27815;43.410;11.852;2024-01-30T23:59:19;3.60;54.90
